createdAt,value
2023-01-26T00:01:56.697Z,-2.16
2023-01-26T00:04:23.901Z,-2.11
2023-01-26T00:06:50.958Z,-2.08
2023-01-26T00:09:18.013Z,-2.09
2023-01-26T00:11:45.053Z,-2.08
2023-01-26T00:14:12.279Z,-2.12
2023-01-26T00:16:39.757Z,-2.14
2023-01-26T00:19:06.969Z,-2.14
2023-01-26T00:21:34.180Z,-2.16
2023-01-26T00:24:01.280Z,-2.18
2023-01-26T00:26:28.313Z,-2.20
2023-01-26T00:28:55.463Z,-2.23
2023-01-26T00:31:25.916Z,-2.26
2023-01-26T00:33:55.059Z,-2.25
2023-01-26T00:36:23.013Z,-2.19
2023-01-26T00:38:50.133Z,-2.11
2023-01-26T00:41:57.885Z,-2.04
2023-01-26T00:44:24.998Z,-1.97
2023-01-26T00:46:52.061Z,-1.92
2023-01-26T00:49:19.099Z,-1.89
2023-01-26T00:51:46.229Z,-1.91
2023-01-26T00:54:13.465Z,-1.97
2023-01-26T00:56:40.547Z,-2.02
2023-01-26T00:59:08.256Z,-2.04
2023-01-26T01:01:35.377Z,-2.01
2023-01-26T01:04:02.669Z,-1.97
2023-01-26T01:06:29.888Z,-1.96
2023-01-26T01:08:56.979Z,-1.94
2023-01-26T01:11:24.065Z,-1.93
2023-01-26T01:13:51.259Z,-1.92
2023-01-26T01:16:19.400Z,-1.94
2023-01-26T01:18:46.562Z,-1.96
2023-01-26T01:21:16.575Z,-1.97
2023-01-26T01:23:44.045Z,-2.02
2023-01-26T01:26:12.653Z,-2.04
2023-01-26T01:28:40.761Z,-2.02
2023-01-26T01:31:13.730Z,-1.99
2023-01-26T01:33:42.286Z,-1.98
2023-01-26T01:36:14.428Z,-2.02
2023-01-26T01:38:43.587Z,-2.06
2023-01-26T01:41:11.883Z,-2.04
2023-01-26T01:43:38.946Z,-2.02
2023-01-26T01:46:32.492Z,-2.04
2023-01-26T01:49:31.736Z,-2.08
2023-01-26T01:52:17.079Z,-2.08
2023-01-26T01:54:57.859Z,-2.00
2023-01-26T01:57:44.184Z,-1.98
2023-01-26T02:00:15.761Z,-1.96
2023-01-26T02:03:05.372Z,-1.95
2023-01-26T02:05:37.032Z,-1.95
2023-01-26T02:08:04.784Z,-1.94
2023-01-26T02:10:32.740Z,-1.91
2023-01-26T02:13:00.557Z,-1.93
2023-01-26T02:15:27.810Z,-1.99
2023-01-26T02:17:54.944Z,-2.03
2023-01-26T02:20:51.715Z,-2.03
2023-01-26T02:23:30.660Z,-2.03
2023-01-26T02:26:15.974Z,-2.04
2023-01-26T02:28:44.244Z,-2.03
2023-01-26T02:31:12.875Z,-1.98
2023-01-26T02:33:41.758Z,-1.96
2023-01-26T02:36:32.323Z,-1.94
2023-01-26T02:39:02.389Z,-1.95
2023-01-26T02:41:48.711Z,-1.97
2023-01-26T02:44:15.933Z,-2.00
2023-01-26T02:46:43.161Z,-2.04
2023-01-26T02:49:28.820Z,-2.08
2023-01-26T02:51:56.093Z,-2.13
2023-01-26T02:54:41.399Z,-2.17
2023-01-26T02:57:08.478Z,-2.19
2023-01-26T02:59:35.542Z,-2.16
2023-01-26T03:02:02.780Z,-2.10
2023-01-26T03:04:29.792Z,-2.04
2023-01-26T03:06:56.818Z,-2.03
2023-01-26T03:09:23.852Z,-2.00
2023-01-26T03:11:51.524Z,-1.95
2023-01-26T03:14:18.685Z,-1.91
2023-01-26T03:16:45.907Z,-1.88
2023-01-26T03:19:32.803Z,-1.87
2023-01-26T03:22:19.344Z,-1.88
2023-01-26T03:25:04.777Z,-1.91
2023-01-26T03:27:44.320Z,-1.95
2023-01-26T03:30:14.997Z,-1.98
2023-01-26T03:32:43.432Z,-2.01
2023-01-26T03:35:14.736Z,-2.05
2023-01-26T03:37:43.406Z,-2.09
2023-01-26T03:40:33.350Z,-2.09
2023-01-26T03:43:28.904Z,-2.09
2023-01-26T03:46:14.586Z,-2.12
2023-01-26T03:49:00.144Z,-2.13
2023-01-26T03:51:45.473Z,-2.17
2023-01-26T03:54:30.734Z,-2.23
2023-01-26T03:56:57.765Z,-2.28
2023-01-26T03:59:37.569Z,-2.28
2023-01-26T04:02:29.957Z,-2.27
2023-01-26T04:05:15.983Z,-2.27
2023-01-26T04:08:05.134Z,-2.28
2023-01-26T04:10:32.405Z,-2.31
2023-01-26T04:13:20.458Z,-2.35
2023-01-26T04:16:11.323Z,-2.38
2023-01-26T04:18:56.681Z,-2.37
2023-01-26T04:21:28.417Z,-2.33
2023-01-26T04:23:57.796Z,-2.29
2023-01-26T04:26:34.206Z,-2.29
2023-01-26T04:29:15.242Z,-2.30
2023-01-26T04:31:43.677Z,-2.34
2023-01-26T04:34:14.403Z,-2.39
2023-01-26T04:36:43.035Z,-2.41
2023-01-26T04:39:10.522Z,-2.40
2023-01-26T04:41:42.347Z,-2.37
2023-01-26T04:44:11.820Z,-2.35
2023-01-26T04:46:39.035Z,-2.36
2023-01-26T04:49:06.402Z,-2.36
2023-01-26T04:51:34.669Z,-2.35
2023-01-26T04:54:01.771Z,-2.35
2023-01-26T04:56:32.647Z,-2.36
2023-01-26T04:59:04.451Z,-2.37
2023-01-26T05:01:32.999Z,-2.35
2023-01-26T05:04:02.060Z,-2.33
2023-01-26T05:06:30.476Z,-2.32
2023-01-26T05:08:58.443Z,-2.31
2023-01-26T05:11:26.185Z,-2.32
2023-01-26T05:14:11.643Z,-2.31
2023-01-26T05:16:51.476Z,-2.32
2023-01-26T05:19:36.982Z,-2.35
2023-01-26T05:22:59.810Z,-2.36
2023-01-26T05:25:41.028Z,-2.33
2023-01-26T05:28:10.947Z,-2.30
2023-01-26T05:30:38.191Z,-2.27
2023-01-26T05:33:08.133Z,-2.27
2023-01-26T05:35:35.609Z,-2.28
2023-01-26T05:38:04.535Z,-2.28
2023-01-26T05:40:33.246Z,-2.28
2023-01-26T05:43:00.426Z,-2.31
2023-01-26T05:46:20.151Z,-2.29
2023-01-26T05:48:47.315Z,-2.25
2023-01-26T05:51:14.509Z,-2.22
2023-01-26T05:53:41.606Z,-2.17
2023-01-26T05:56:09.115Z,-2.14
2023-01-26T05:58:39.941Z,-2.11
2023-01-26T06:01:08.099Z,-2.10
2023-01-26T06:03:40.685Z,-2.10
2023-01-26T06:06:07.925Z,-2.15
2023-01-26T06:08:44.570Z,-2.16
2023-01-26T06:11:32.115Z,-2.14
2023-01-26T06:14:14.810Z,-2.16
2023-01-26T06:16:42.466Z,-2.17
2023-01-26T06:19:10.641Z,-2.14
2023-01-26T06:21:38.355Z,-2.05
2023-01-26T06:24:06.214Z,-1.98
2023-01-26T06:26:33.343Z,-1.97
2023-01-26T06:29:00.532Z,-1.92
2023-01-26T06:31:30.807Z,-1.86
2023-01-26T06:33:59.683Z,-1.86
2023-01-26T06:36:27.776Z,-1.86
2023-01-26T06:38:56.933Z,-1.83
2023-01-26T06:41:24.685Z,-1.79
2023-01-26T06:43:51.869Z,-1.76
2023-01-26T06:46:20.483Z,-1.67
2023-01-26T06:48:48.243Z,-1.60
2023-01-26T06:51:15.649Z,-1.53
2023-01-26T06:53:48.367Z,-1.47
2023-01-26T06:56:23.629Z,-1.43
2023-01-26T06:59:16.037Z,-1.36
2023-01-26T07:02:01.199Z,-1.34
2023-01-26T07:04:28.226Z,-1.31
2023-01-26T07:06:55.338Z,-1.23
2023-01-26T07:09:22.393Z,-1.19
2023-01-26T07:11:49.452Z,-1.22
2023-01-26T07:14:16.481Z,-1.12
2023-01-26T07:16:43.497Z,-1.03
2023-01-26T07:19:10.577Z,-0.98
2023-01-26T07:21:38.585Z,-0.94
2023-01-26T07:24:07.515Z,-0.88
2023-01-26T07:26:34.676Z,-0.83
2023-01-26T07:29:01.775Z,-0.78
2023-01-26T07:31:28.840Z,-0.77
2023-01-26T07:33:55.955Z,-0.79
2023-01-26T07:36:22.994Z,-0.78
2023-01-26T07:38:50.236Z,-0.71
2023-01-26T07:41:17.329Z,-0.63
2023-01-26T07:43:44.474Z,-0.58
2023-01-26T07:46:11.975Z,-0.56
2023-01-26T07:48:41.164Z,-0.51
2023-01-26T07:51:10.393Z,-0.50
2023-01-26T07:53:39.292Z,-0.48
2023-01-26T07:56:15.483Z,-0.39
2023-01-26T07:58:42.739Z,-0.32
2023-01-26T08:01:14.725Z,-0.27
2023-01-26T08:03:42.228Z,-0.25
2023-01-26T08:06:11.912Z,-0.22
2023-01-26T08:08:40.849Z,-0.13
2023-01-26T08:11:09.041Z,-0.09
2023-01-26T08:13:36.621Z,-0.07
2023-01-26T08:16:10.116Z,0.00
2023-01-26T08:18:38.586Z,-0.01
2023-01-26T08:21:05.624Z,0.10
2023-01-26T08:23:33.043Z,0.13
2023-01-26T08:26:05.901Z,0.21
2023-01-26T08:28:34.015Z,0.30
2023-01-26T08:31:07.871Z,0.37
2023-01-26T08:33:34.979Z,0.43
2023-01-26T08:36:07.871Z,0.45
2023-01-26T08:38:35.038Z,0.43
2023-01-26T08:41:02.502Z,0.39
2023-01-26T08:43:30.200Z,0.40
2023-01-26T08:45:57.670Z,0.36
2023-01-26T08:48:25.083Z,0.44
2023-01-26T08:50:57.853Z,0.60
2023-01-26T08:53:25.497Z,0.65
2023-01-26T08:55:52.664Z,0.60
2023-01-26T08:58:20.075Z,0.62
2023-01-26T09:00:47.421Z,0.67
2023-01-26T09:03:14.815Z,0.73
2023-01-26T09:05:42.005Z,0.73
2023-01-26T09:08:09.517Z,0.81
2023-01-26T09:10:38.647Z,0.80
2023-01-26T09:13:05.879Z,0.85
2023-01-26T09:15:33.139Z,0.63
2023-01-26T09:18:01.142Z,0.48
2023-01-26T09:20:28.454Z,0.52
2023-01-26T09:22:56.126Z,0.55
2023-01-26T09:25:23.231Z,0.51
2023-01-26T09:27:50.226Z,0.60
2023-01-26T09:30:17.540Z,0.57
2023-01-26T09:32:44.665Z,0.46
2023-01-26T09:35:14.082Z,0.58
2023-01-26T09:37:45.243Z,0.62
2023-01-26T09:40:31.249Z,0.55
2023-01-26T09:42:59.781Z,0.59
2023-01-26T09:45:40.966Z,0.55
2023-01-26T09:48:53.873Z,0.54
2023-01-26T09:51:35.081Z,0.53
2023-01-26T09:54:40.237Z,0.48
2023-01-26T09:57:13.703Z,0.57
2023-01-26T10:00:05.076Z,0.50
2023-01-26T10:02:50.168Z,0.56
2023-01-26T10:05:35.951Z,0.67
2023-01-26T10:08:14.207Z,0.70
2023-01-26T10:10:49.034Z,0.76
2023-01-26T10:13:17.907Z,0.83
2023-01-26T10:15:57.247Z,0.79
2023-01-26T10:18:31.447Z,0.87
2023-01-26T10:21:01.341Z,0.93
2023-01-26T10:23:32.047Z,0.96
2023-01-26T10:26:18.402Z,0.89
2023-01-26T10:28:48.961Z,0.92
2023-01-26T10:31:23.127Z,0.94
2023-01-26T10:34:14.622Z,0.99
2023-01-26T10:36:44.520Z,1.06
2023-01-26T10:39:15.547Z,1.13
2023-01-26T10:41:58.202Z,0.92
2023-01-26T10:44:38.109Z,0.91
2023-01-26T10:47:17.909Z,1.01
2023-01-26T10:49:45.385Z,1.03
2023-01-26T10:52:24.385Z,1.11
2023-01-26T10:55:11.231Z,1.18
2023-01-26T10:57:42.389Z,1.29
2023-01-26T11:00:29.078Z,1.24
2023-01-26T11:03:17.165Z,1.19
2023-01-26T11:05:47.448Z,1.16
2023-01-26T11:08:40.954Z,1.14
2023-01-26T11:11:29.467Z,1.29
2023-01-26T11:14:32.792Z,1.19
2023-01-26T11:17:22.348Z,1.21
2023-01-26T11:20:02.355Z,1.33
2023-01-26T11:23:10.853Z,1.34
2023-01-26T11:26:09.705Z,1.47
2023-01-26T11:29:16.449Z,1.52
2023-01-26T11:31:52.210Z,1.57
2023-01-26T11:34:49.176Z,1.54
2023-01-26T11:37:38.190Z,1.52
2023-01-26T11:40:29.581Z,1.46
2023-01-26T11:43:43.359Z,1.37
2023-01-26T11:46:36.655Z,1.23
2023-01-26T11:49:03.650Z,1.20
2023-01-26T11:52:10.126Z,1.14
2023-01-26T11:54:46.020Z,1.13
2023-01-26T11:57:27.258Z,1.17
2023-01-26T12:00:07.222Z,1.34
2023-01-26T12:02:42.798Z,1.39
2023-01-26T12:05:43.682Z,1.46
2023-01-26T12:08:25.280Z,1.41
2023-01-26T12:11:23.484Z,1.42
2023-01-26T12:14:11.677Z,1.41
2023-01-26T12:17:18.307Z,1.35
2023-01-26T12:20:11.176Z,1.25
2023-01-26T12:22:44.839Z,1.33
2023-01-26T12:25:41.663Z,1.31
2023-01-26T12:28:37.179Z,1.28
2023-01-26T12:31:23.107Z,1.27
2023-01-26T12:33:54.479Z,1.22
2023-01-26T12:36:58.676Z,1.12
2023-01-26T12:39:42.218Z,1.19
2023-01-26T12:42:52.181Z,1.09
2023-01-26T12:45:38.774Z,1.05
2023-01-26T12:48:36.157Z,1.05
2023-01-26T12:51:14.616Z,1.05
2023-01-26T12:54:04.635Z,1.03
2023-01-26T12:56:50.856Z,0.98
2023-01-26T12:59:48.214Z,0.97
2023-01-26T13:02:15.952Z,1.01
2023-01-26T13:04:46.685Z,1.00
2023-01-26T13:07:36.136Z,0.95
2023-01-26T13:10:17.038Z,0.89
2023-01-26T13:13:04.902Z,0.79
2023-01-26T13:15:32.327Z,0.73
2023-01-26T13:18:02.056Z,0.69
2023-01-26T13:20:48.143Z,0.65
2023-01-26T13:23:40.094Z,0.61
2023-01-26T13:26:24.030Z,0.56
2023-01-26T13:28:53.004Z,0.58
2023-01-26T13:31:32.814Z,0.55
2023-01-26T13:34:08.728Z,0.47
2023-01-26T13:36:41.181Z,0.39
2023-01-26T13:39:31.180Z,0.40
2023-01-26T13:41:58.286Z,0.31
2023-01-26T13:45:00.308Z,0.28
2023-01-26T13:47:37.030Z,0.21
2023-01-26T13:50:32.280Z,0.19
2023-01-26T13:53:00.166Z,0.25
2023-01-26T13:55:31.691Z,0.17
2023-01-26T13:58:17.957Z,0.13
2023-01-26T14:01:03.496Z,0.11
2023-01-26T14:03:31.267Z,0.00
2023-01-26T14:06:19.289Z,-0.02
2023-01-26T14:08:56.509Z,-0.07
2023-01-26T14:11:30.326Z,-0.08
2023-01-26T14:14:01.034Z,-0.11
2023-01-26T14:16:36.711Z,-0.18
2023-01-26T14:19:20.691Z,-0.21
2023-01-26T14:21:59.725Z,-0.23
2023-01-26T14:24:34.741Z,-0.24
2023-01-26T14:27:03.350Z,-0.21
2023-01-26T14:29:36.358Z,-0.26
2023-01-26T14:32:04.382Z,-0.27
2023-01-26T14:34:31.434Z,-0.34
2023-01-26T14:37:16.752Z,-0.33
2023-01-26T14:39:47.331Z,-0.36
2023-01-26T14:42:18.610Z,-0.38
2023-01-26T14:44:46.357Z,-0.39
2023-01-26T14:47:22.021Z,-0.42
2023-01-26T14:49:59.192Z,-0.46
2023-01-26T14:52:34.651Z,-0.47
2023-01-26T14:55:08.211Z,-0.45
2023-01-26T14:57:35.308Z,-0.45
2023-01-26T15:00:09.403Z,-0.46
2023-01-26T15:02:42.595Z,-0.48
2023-01-26T15:05:20.238Z,-0.52
2023-01-26T15:08:05.148Z,-0.55
2023-01-26T15:10:41.816Z,-0.54
2023-01-26T15:13:14.850Z,-0.59
2023-01-26T15:15:48.348Z,-0.61
2023-01-26T15:18:20.599Z,-0.66
2023-01-26T15:20:59.735Z,-0.70
2023-01-26T15:23:26.901Z,-0.73
2023-01-26T15:25:54.573Z,-0.74
2023-01-26T15:28:25.681Z,-0.74
2023-01-26T15:30:56.430Z,-0.76
2023-01-26T15:33:53.988Z,-0.79
2023-01-26T15:36:42.104Z,-0.82
2023-01-26T15:39:12.425Z,-0.80
2023-01-26T15:41:41.635Z,-0.78
2023-01-26T15:44:20.786Z,-0.77
2023-01-26T15:46:47.795Z,-0.80
2023-01-26T15:49:17.819Z,-0.87
2023-01-26T15:51:45.569Z,-0.84
2023-01-26T15:54:12.692Z,-0.82
2023-01-26T15:56:39.790Z,-0.86
2023-01-26T15:59:06.914Z,-0.86
2023-01-26T16:01:33.942Z,-0.88
2023-01-26T16:04:01.047Z,-0.97
2023-01-26T16:06:31.992Z,-0.96
2023-01-26T16:08:59.635Z,-0.94
2023-01-26T16:11:31.146Z,-0.87
2023-01-26T16:14:03.732Z,-0.96
2023-01-26T16:16:32.353Z,-0.97
2023-01-26T16:18:59.578Z,-0.92
2023-01-26T16:21:34.398Z,-0.91
2023-01-26T16:24:02.768Z,-0.90
2023-01-26T16:26:31.422Z,-0.91
2023-01-26T16:28:58.924Z,-0.89
2023-01-26T16:31:31.992Z,-0.86
2023-01-26T16:34:00.468Z,-0.89
2023-01-26T16:36:27.709Z,-0.92
2023-01-26T16:38:54.834Z,-0.93
2023-01-26T16:41:28.530Z,-0.91
2023-01-26T16:43:59.051Z,-0.90
2023-01-26T16:46:27.533Z,-0.90
2023-01-26T16:48:55.572Z,-0.90
2023-01-26T16:51:26.181Z,-0.89
2023-01-26T16:53:53.917Z,-0.87
2023-01-26T16:56:22.901Z,-0.80
2023-01-26T16:58:50.574Z,-0.73
2023-01-26T17:01:22.261Z,-0.73
2023-01-26T17:03:50.557Z,-0.73
2023-01-26T17:06:19.088Z,-0.73
2023-01-26T17:08:46.645Z,-0.76
2023-01-26T17:11:21.840Z,-0.77
2023-01-26T17:13:48.913Z,-0.78
2023-01-26T17:16:24.516Z,-0.75
2023-01-26T17:18:51.851Z,-0.73
2023-01-26T17:21:20.294Z,-0.71
2023-01-26T17:23:53.408Z,-0.73
2023-01-26T17:26:22.132Z,-0.77
2023-01-26T17:28:53.868Z,-0.80
2023-01-26T17:31:22.635Z,-0.80
2023-01-26T17:33:50.596Z,-0.77
2023-01-26T17:36:19.428Z,-0.73
2023-01-26T17:38:47.995Z,-0.73
2023-01-26T17:41:16.551Z,-0.80
2023-01-26T17:43:44.121Z,-0.83
2023-01-26T17:46:20.286Z,-0.75
2023-01-26T17:48:48.759Z,-0.74
2023-01-26T17:51:21.428Z,-0.73
2023-01-26T17:53:49.984Z,-0.82
2023-01-26T17:56:19.854Z,-0.77
2023-01-26T17:58:50.308Z,-0.79
2023-01-26T18:01:20.941Z,-0.77
2023-01-26T18:03:48.622Z,-0.73
2023-01-26T18:06:16.155Z,-0.67
2023-01-26T18:08:43.230Z,-0.62
2023-01-26T18:11:13.639Z,-0.69
2023-01-26T18:13:41.144Z,-0.67
2023-01-26T18:16:11.926Z,-0.69
2023-01-26T18:18:39.097Z,-0.70
2023-01-26T18:21:24.274Z,-0.67
2023-01-26T18:24:02.055Z,-0.66
2023-01-26T18:26:34.201Z,-0.65
2023-01-26T18:29:02.710Z,-0.65
2023-01-26T18:31:33.656Z,-0.67
2023-01-26T18:34:03.007Z,-0.69
2023-01-26T18:36:30.396Z,-0.69
2023-01-26T18:39:01.790Z,-0.68
2023-01-26T18:41:32.527Z,-0.66
2023-01-26T18:44:02.459Z,-0.64
2023-01-26T18:46:32.789Z,-0.65
2023-01-26T18:49:00.139Z,-0.66
2023-01-26T18:51:34.061Z,-0.69
2023-01-26T18:54:03.378Z,-0.70
2023-01-26T18:56:30.959Z,-0.66
2023-01-26T18:58:58.657Z,-0.62
2023-01-26T19:01:26.369Z,-0.62
2023-01-26T19:03:55.256Z,-0.65
2023-01-26T19:06:24.632Z,-0.67
2023-01-26T19:08:57.625Z,-0.69
2023-01-26T19:11:30.319Z,-0.70
2023-01-26T19:13:58.893Z,-0.67
2023-01-26T19:16:27.367Z,-0.61
2023-01-26T19:18:55.283Z,-0.59
2023-01-26T19:21:24.064Z,-0.60
2023-01-26T19:23:54.071Z,-0.62
2023-01-26T19:26:25.027Z,-0.63
2023-01-26T19:28:53.627Z,-0.64
2023-01-26T19:31:22.371Z,-0.59
2023-01-26T19:34:03.128Z,-0.56
2023-01-26T19:36:33.315Z,-0.54
2023-01-26T19:39:02.093Z,-0.54
2023-01-26T19:41:29.403Z,-0.54
2023-01-26T19:43:56.579Z,-0.52
2023-01-26T19:46:23.980Z,-0.54
2023-01-26T19:48:51.099Z,-0.56
2023-01-26T19:51:24.789Z,-0.55
2023-01-26T19:53:59.035Z,-0.55
2023-01-26T19:56:28.634Z,-0.57
2023-01-26T19:59:01.859Z,-0.53
2023-01-26T20:01:30.800Z,-0.55
2023-01-26T20:04:07.209Z,-0.57
2023-01-26T20:06:35.787Z,-0.58
2023-01-26T20:09:04.864Z,-0.58
2023-01-26T20:11:33.434Z,-0.59
2023-01-26T20:14:07.989Z,-0.55
2023-01-26T20:16:35.857Z,-0.54
2023-01-26T20:19:04.117Z,-0.51
2023-01-26T20:21:32.321Z,-0.47
2023-01-26T20:24:05.161Z,-0.50
2023-01-26T20:26:34.128Z,-0.49
2023-01-26T20:29:01.395Z,-0.49
2023-01-26T20:31:28.578Z,-0.49
2023-01-26T20:33:56.011Z,-0.51
2023-01-26T20:36:27.355Z,-0.51
2023-01-26T20:38:54.779Z,-0.50
2023-01-26T20:41:27.553Z,-0.52
2023-01-26T20:44:00.563Z,-0.54
2023-01-26T20:46:35.807Z,-0.58
2023-01-26T20:49:04.673Z,-0.59
2023-01-26T20:51:35.173Z,-0.58
2023-01-26T20:54:05.941Z,-0.57
2023-01-26T20:56:34.972Z,-0.60
2023-01-26T20:59:03.822Z,-0.62
2023-01-26T21:01:33.245Z,-0.66
2023-01-26T21:04:01.636Z,-0.65
2023-01-26T21:06:29.731Z,-0.60
2023-01-26T21:08:59.247Z,-0.64
2023-01-26T21:11:30.049Z,-0.68
2023-01-26T21:14:00.617Z,-0.68
2023-01-26T21:16:29.918Z,-0.80
2023-01-26T21:18:57.290Z,-0.79
2023-01-26T21:21:24.495Z,-0.75
2023-01-26T21:23:51.832Z,-0.76
2023-01-26T21:26:22.614Z,-0.76
2023-01-26T21:28:59.097Z,-0.78
2023-01-26T21:31:30.499Z,-0.76
2023-01-26T21:33:59.713Z,-0.74
2023-01-26T21:36:30.324Z,-0.72
2023-01-26T21:38:59.027Z,-0.73
2023-01-26T21:41:50.557Z,-0.72
2023-01-26T21:44:21.662Z,-0.70
2023-01-26T21:47:11.500Z,-0.73
2023-01-26T21:49:38.539Z,-0.74
2023-01-26T21:52:24.067Z,-0.72
2023-01-26T21:54:51.107Z,-0.86
2023-01-26T21:57:36.429Z,-0.83
2023-01-26T22:00:04.050Z,-0.90
2023-01-26T22:02:31.614Z,-0.90
2023-01-26T22:04:58.744Z,-0.90
2023-01-26T22:07:27.513Z,-0.94
2023-01-26T22:09:54.603Z,-0.92
2023-01-26T22:12:22.417Z,-0.93
2023-01-26T22:14:51.296Z,-0.94
2023-01-26T22:17:18.303Z,-0.94
2023-01-26T22:19:45.342Z,-0.94
2023-01-26T22:22:12.462Z,-0.98
2023-01-26T22:24:39.546Z,-1.04
2023-01-26T22:27:07.746Z,-1.06
2023-01-26T22:29:34.918Z,-1.07
2023-01-26T22:32:03.219Z,-1.07
2023-01-26T22:34:31.940Z,-1.12
2023-01-26T22:36:58.963Z,-1.13
2023-01-26T22:39:26.137Z,-1.17
2023-01-26T22:41:53.281Z,-1.20
2023-01-26T22:44:20.399Z,-1.23
2023-01-26T22:46:47.463Z,-1.29
2023-01-26T22:49:14.524Z,-1.31
2023-01-26T22:51:41.745Z,-1.35
2023-01-26T22:54:08.936Z,-1.36
2023-01-26T22:56:36.020Z,-1.34
2023-01-26T22:59:03.113Z,-1.38
2023-01-26T23:01:32.655Z,-1.43
2023-01-26T23:04:01.025Z,-1.45
2023-01-26T23:06:28.378Z,-1.48
2023-01-26T23:08:57.462Z,-1.45
2023-01-26T23:11:28.071Z,-1.41
2023-01-26T23:13:57.393Z,-1.47
2023-01-26T23:16:26.007Z,-1.49
2023-01-26T23:18:55.405Z,-1.51
2023-01-26T23:21:24.391Z,-1.54
2023-01-26T23:23:52.100Z,-1.57
2023-01-26T23:26:19.915Z,-1.58
2023-01-26T23:28:47.280Z,-1.63
2023-01-26T23:31:16.606Z,-1.63
2023-01-26T23:33:44.579Z,-1.71
2023-01-26T23:36:13.831Z,-1.73
2023-01-26T23:38:41.439Z,-1.75
2023-01-26T23:41:08.563Z,-1.74
2023-01-26T23:43:36.051Z,-1.75
2023-01-26T23:46:05.330Z,-1.77
2023-01-26T23:48:32.610Z,-1.81
2023-01-26T23:51:07.893Z,-1.85
2023-01-26T23:53:35.265Z,-1.88
2023-01-26T23:56:10.515Z,-1.88
2023-01-26T23:58:37.669Z,-1.87
